»·PEaware :: N912NB KSLC-KPDX

N912NB :: KSLC-KPDX

FLIGHT INFORMATION

Flight Status: Arrived
Operator: Privately registered:
United States
More flights under this callsign
Pilot: Alex K. (14822)
Aircraft: BOEING 737-200
(B732)
More flights by this aircraft type
Origin: KSLC Salt Lake City Intl
United States
Destination: KPDX Portland Intl
United States
More flights between these airports :: More routes between these airports
Route: +SLC4 TCH V484 TWF J15 BOI J163 BKE LTJ BTG
File this flight plan on PilotEdge
Remarks: PBN / A1B2 NAV / RNVD1E2A1 DAT / V DOF / 180204 REG / N912NB EET / KZSE0104 RMK / NRP SIMBRIEF
Altitude:
(Current/Filed)
32,000ft
Speed:
(Current/Filed)
432kts
Departed: 04-Feb-18 09:08 AM
Arrived: 04-Feb-18 10:58 AM
Distance/Time
Traveled:
545nm/1:50
Distance/Time
To Go:
Arrived

Flight Plot

Page will automatically refresh every two minutes.

Flight plan parsing failed; only flown route is shown


Map Options




Map Legend


Flown Route
Filed Route
Departure Airport
Arrival Airport
Navaid (VOR, NDB)
Fix

Horizontal Profiles

Position Reports

Time Latitude Longitude Heading Altitude Ground
Speed
04-Feb-18 08:58 40.775520 -111.959794 357 4236ft 0kts
04-Feb-18 08:59 40.775520 -111.959794 357 4236ft 0kts
04-Feb-18 09:00 40.775520 -111.959794 357 4236ft 0kts
04-Feb-18 09:01 40.775520 -111.959794 357 4236ft 0kts
04-Feb-18 09:02 40.775520 -111.959794 357 4236ft 0kts
04-Feb-18 09:03 40.775520 -111.959794 357 4236ft 0kts
04-Feb-18 09:04 40.775521 -111.959794 357 4236ft 0kts
04-Feb-18 09:05 40.775521 -111.959794 357 4236ft 0kts
04-Feb-18 09:06 40.775521 -111.959794 357 4236ft 0kts
04-Feb-18 09:07 40.775555 -111.959799 349 4236ft 2kts
04-Feb-18 09:08 40.777765 -111.960647 358 4236ft 0kts
04-Feb-18 09:09 40.778636 -111.960166 41 4236ft 12kts
04-Feb-18 09:10 40.784086 -111.960018 0 4236ft 21kts
04-Feb-18 09:12 40.790107 -111.959993 359 4236ft 21kts
04-Feb-18 09:13 40.795994 -111.959996 359 4236ft 21kts
04-Feb-18 09:14 40.798633 -111.961798 222 4236ft 10kts
04-Feb-18 09:15 40.777792 -111.962456 182 4551ft 150kts
04-Feb-18 09:16 40.732892 -111.960786 174 6667ft 183kts
04-Feb-18 09:17 40.673989 -111.956662 196 8738ft 246kts
04-Feb-18 09:18 40.657699 -112.038458 307 11234ft 290kts
04-Feb-18 09:19 40.737071 -112.075254 352 13103ft 340kts
04-Feb-18 09:20 40.825682 -112.104625 351 16280ft 328kts
04-Feb-18 09:21 40.913683 -112.128690 350 18826ft 324kts
04-Feb-18 09:22 41.005734 -112.141105 351 20399ft 343kts
04-Feb-18 09:23 41.067888 -112.221400 292 22023ft 341kts
04-Feb-18 09:24 41.100864 -112.339277 292 23512ft 347kts
04-Feb-18 09:25 41.134516 -112.459484 292 24773ft 354kts
04-Feb-18 09:26 41.168848 -112.582709 291 25927ft 360kts
04-Feb-18 09:27 41.206569 -112.704948 308 26998ft 361kts
04-Feb-18 09:28 41.273872 -112.805456 309 27879ft 368kts
04-Feb-18 09:28 41.347732 -112.858842 337 28622ft 377kts
04-Feb-18 09:30 41.458436 -112.920826 322 29434ft 377kts
04-Feb-18 09:31 41.536758 -113.014058 313 29880ft 384kts
04-Feb-18 09:31 41.596576 -113.099880 311 30607ft 380kts
04-Feb-18 09:33 41.678827 -113.222763 310 31139ft 385kts
04-Feb-18 09:34 41.748728 -113.330947 310 31635ft 386kts
04-Feb-18 09:34 41.807389 -113.422072 310 31972ft 388kts
04-Feb-18 09:35 41.878146 -113.532373 310 32177ft 394kts
04-Feb-18 09:37 41.961634 -113.663335 309 32181ft 404kts
04-Feb-18 09:38 42.034542 -113.780054 309 32183ft 412kts
04-Feb-18 09:38 42.096115 -113.877541 309 32179ft 409kts
04-Feb-18 09:39 42.169776 -113.992475 309 32186ft 408kts
04-Feb-18 09:40 42.243279 -114.108926 309 32184ft 408kts
04-Feb-18 09:41 42.316144 -114.225130 309 32198ft 407kts
04-Feb-18 09:42 42.388699 -114.341360 309 32235ft 406kts
04-Feb-18 09:43 42.461260 -114.458077 309 32231ft 405kts
04-Feb-18 09:44 42.533366 -114.574403 309 32232ft 404kts
04-Feb-18 09:45 42.605604 -114.689264 310 32239ft 403kts
04-Feb-18 09:46 42.678227 -114.801952 310 32211ft 404kts
04-Feb-18 09:47 42.751402 -114.917067 309 32209ft 404kts
04-Feb-18 09:48 42.824278 -115.032373 309 32207ft 403kts
04-Feb-18 09:49 42.898794 -115.145819 313 32207ft 403kts
04-Feb-18 09:50 42.974083 -115.258000 310 32204ft 402kts
04-Feb-18 09:51 43.047126 -115.372980 310 32202ft 401kts
04-Feb-18 09:52 43.119321 -115.487477 310 32210ft 400kts
04-Feb-18 09:53 43.191473 -115.601790 310 32207ft 400kts
04-Feb-18 09:54 43.262046 -115.717094 308 32215ft 400kts
04-Feb-18 09:55 43.333682 -115.834080 309 32231ft 401kts
04-Feb-18 09:56 43.405205 -115.950457 309 32239ft 400kts
04-Feb-18 09:57 43.476443 -116.066675 309 32237ft 400kts
04-Feb-18 09:58 43.547244 -116.182635 309 32235ft 399kts
04-Feb-18 09:59 43.627590 -116.287025 317 32234ft 400kts
04-Feb-18 10:00 43.706827 -116.383966 316 32232ft 399kts
04-Feb-18 10:01 43.786780 -116.483661 316 32230ft 398kts
04-Feb-18 10:02 43.867946 -116.585576 316 32228ft 397kts
04-Feb-18 10:03 43.948546 -116.688385 314 32237ft 396kts
04-Feb-18 10:04 44.029335 -116.792161 315 32234ft 396kts
04-Feb-18 10:05 44.109456 -116.895120 314 32239ft 395kts
04-Feb-18 10:06 44.189060 -116.999749 315 32240ft 396kts
04-Feb-18 10:07 44.270344 -117.103546 317 32238ft 399kts
04-Feb-18 10:08 44.354789 -117.202523 320 32237ft 402kts
04-Feb-18 10:09 44.443988 -117.296085 320 32211ft 404kts
04-Feb-18 10:10 44.527907 -117.398869 315 32206ft 402kts
04-Feb-18 10:11 44.609657 -117.504795 315 32173ft 402kts
04-Feb-18 10:12 44.691567 -117.611500 315 32176ft 401kts
04-Feb-18 10:13 44.772222 -117.718562 314 32184ft 401kts
04-Feb-18 10:14 44.850402 -117.829419 303 32187ft 399kts
04-Feb-18 10:15 44.901630 -117.967625 294 32180ft 399kts
04-Feb-18 10:16 44.943842 -118.111721 292 32179ft 400kts
04-Feb-18 10:17 44.984144 -118.257153 292 32177ft 399kts
04-Feb-18 10:18 45.023978 -118.403211 292 32175ft 399kts
04-Feb-18 10:19 45.063151 -118.548777 291 32167ft 396kts
04-Feb-18 10:20 45.101122 -118.691386 290 32183ft 393kts
04-Feb-18 10:21 45.140039 -118.832878 291 32179ft 393kts
04-Feb-18 10:22 45.177390 -118.972617 291 32159ft 393kts
04-Feb-18 10:23 45.215360 -119.116240 290 32157ft 393kts
04-Feb-18 10:24 45.253343 -119.260985 290 32155ft 392kts
04-Feb-18 10:25 45.291065 -119.405659 290 32153ft 392kts
04-Feb-18 10:26 45.328557 -119.550348 290 32124ft 392kts
04-Feb-18 10:27 45.364849 -119.692827 289 32015ft 377kts
04-Feb-18 10:28 45.399865 -119.832193 288 30010ft 371kts
04-Feb-18 10:29 45.434299 -119.968291 289 28996ft 363kts
04-Feb-18 10:30 45.468297 -120.102773 289 27516ft 372kts
04-Feb-18 10:31 45.502403 -120.238985 289 26583ft 362kts
04-Feb-18 10:32 45.535631 -120.372369 289 25282ft 357kts
04-Feb-18 10:33 45.568244 -120.504045 289 24130ft 350kts
04-Feb-18 10:34 45.599909 -120.632605 290 22436ft 341kts
04-Feb-18 10:35 45.629964 -120.756865 289 20882ft 331kts
04-Feb-18 10:36 45.658068 -120.872458 290 19272ft 322kts
04-Feb-18 10:37 45.686110 -120.990673 282 17510ft 315kts
04-Feb-18 10:38 45.697855 -121.110788 279 15900ft 315kts
04-Feb-18 10:39 45.706012 -121.244167 276 15886ft 358kts
04-Feb-18 10:40 45.711950 -121.386557 276 15874ft 363kts
04-Feb-18 10:41 45.717053 -121.527348 275 15874ft 352kts
04-Feb-18 10:42 45.721725 -121.665405 274 15878ft 346kts
04-Feb-18 10:43 45.725481 -121.798585 275 15880ft 342kts
04-Feb-18 10:44 45.729540 -121.931778 275 15879ft 338kts
04-Feb-18 10:45 45.733509 -122.063140 275 15931ft 336kts
04-Feb-18 10:46 45.736914 -122.179761 275 15901ft 329kts
04-Feb-18 10:47 45.740304 -122.303449 275 14058ft 316kts
04-Feb-18 10:48 45.743555 -122.423462 275 12117ft 293kts
04-Feb-18 10:49 45.746217 -122.530956 274 10113ft 264kts
04-Feb-18 10:50 45.749148 -122.632368 275 8156ft 249kts
04-Feb-18 10:51 45.753568 -122.733063 274 6460ft 268kts
04-Feb-18 10:52 45.759519 -122.831982 274 5584ft 257kts
04-Feb-18 10:53 45.764803 -122.929471 275 4561ft 243kts
04-Feb-18 10:54 45.767115 -123.022058 249 3992ft 238kts
04-Feb-18 10:55 45.712076 -123.032293 124 4004ft 241kts
04-Feb-18 10:56 45.703479 -122.942184 85 3971ft 227kts
04-Feb-18 10:57 45.697483 -122.862259 116 2999ft 217kts
04-Feb-18 10:58 45.680545 -122.817036 117 2993ft 198kts
04-Feb-18 10:59 45.656045 -122.753262 118 2569ft 162kts
04-Feb-18 11:00 45.636716 -122.703477 118 1728ft 131kts
04-Feb-18 11:01 45.619526 -122.659299 118 1057ft 131kts
04-Feb-18 11:02 45.602288 -122.614978 118 364ft 125kts
04-Feb-18 11:03 45.587911 -122.577885 119 38ft 46kts
04-Feb-18 11:04 45.586542 -122.577618 298 38ft 7kts
04-Feb-18 11:05 45.588243 -122.582073 281 38ft 9kts
04-Feb-18 11:06 45.587756 -122.583958 209 38ft 0kts
04-Feb-18 11:07 45.587756 -122.583958 209 38ft 0kts
04-Feb-18 11:08 45.587756 -122.583958 209 38ft 0kts
04-Feb-18 11:09 45.587756 -122.583958 209 38ft 0kts

Navigation Log

Ident Type
Flight plan parsing failed, navigation log unavailable